Time;durP1;ratioP1;P1;durP2;ratioP2;P2;SDS_P1;SDS_P2;PMS_P1;PMS_P2;Temp;Humidity;BMP_temperature;BMP_pressure;BME280_temperature;BME280_humidity;BME280_pressure;Samples;Min_cycle;Max_cycle;Signal;HPM_P1;HPM_P2
2022/05/28 00:01:05;;;;;;;;;;;11.40;1.00;;;;;;10329607;28;83247;-52
2022/05/28 00:06:10;;;;;;;;;;;11.40;1.00;;;;;;10330055;28;83324;-50
2022/05/28 00:11:17;;;;;;;;;;;11.40;1.00;;;;;;10327481;28;83980;-50
2022/05/28 00:16:18;;;;;;;;;;;11.40;1.00;;;;;;10329334;28;83662;-54
2022/05/28 00:21:19;;;;;;;;;;;11.40;1.00;;;;;;10328713;28;84009;-49
2022/05/28 00:26:20;;;;;;;;;;;11.30;1.00;;;;;;10314262;28;84169;-55
2022/05/28 00:31:20;;;;;;;;;;;11.30;1.00;;;;;;10270635;28;84221;-53
2022/05/28 00:36:21;;;;;;;;;;;11.30;1.00;;;;;;10287365;28;83318;-51
2022/05/28 00:41:22;;;;;;;;;;;11.20;1.00;;;;;;10287412;28;84673;-51
2022/05/28 00:46:24;;;;;;;;;;;11.20;1.00;;;;;;10309699;28;83585;-48
2022/05/28 00:51:27;;;;;;;;;;;11.10;1.00;;;;;;10326794;28;83758;-52
2022/05/28 00:56:28;;;;;;;;;;;11.10;1.00;;;;;;10327878;28;84417;-52
2022/05/28 01:01:30;;;;;;;;;;;11.10;1.00;;;;;;10325354;28;83214;-50
2022/05/28 01:06:33;;;;;;;;;;;11.10;1.00;;;;;;10328655;28;84182;-50
2022/05/28 01:12:00;;;;;;;;;;;11.00;1.00;;;;;;10326502;28;83792;-49
2022/05/28 01:17:06;;;;;;;;;;;11.00;1.00;;;;;;10317809;28;83758;-53
2022/05/28 01:22:13;;;;;;;;;;;11.00;1.00;;;;;;10327712;28;83411;-51
2022/05/28 01:27:16;;;;;;;;;;;11.00;1.00;;;;;;10329361;28;83411;-49
2022/05/28 01:32:17;;;;;;;;;;;11.00;1.00;;;;;;10328122;28;83652;-48
2022/05/28 01:37:18;;;;;;;;;;;11.00;1.00;;;;;;10294486;28;84017;-52
2022/05/28 01:42:19;;;;;;;;;;;11.00;1.00;;;;;;10285940;28;84049;-48
2022/05/28 01:47:20;;;;;;;;;;;11.00;1.00;;;;;;10291582;28;84020;-53
2022/05/28 01:52:22;;;;;;;;;;;11.10;1.00;;;;;;10293016;28;83266;-49
2022/05/28 01:57:22;;;;;;;;;;;11.10;1.00;;;;;;10293123;28;84072;-49
2022/05/28 02:02:23;;;;;;;;;;;11.10;1.00;;;;;;10294510;28;83887;-53
2022/05/28 02:07:23;;;;;;;;;;;11.00;1.00;;;;;;10293968;28;84915;-53
2022/05/28 02:12:25;;;;;;;;;;;11.00;1.00;;;;;;10292405;28;83996;-50
2022/05/28 02:17:39;;;;;;;;;;;11.10;1.00;;;;;;10291848;28;83981;-51
2022/05/28 02:23:03;;;;;;;;;;;11.10;1.00;;;;;;10289954;28;84078;-52
2022/05/28 02:28:05;;;;;;;;;;;11.10;1.00;;;;;;10279957;28;84108;-51
2022/05/28 02:33:06;;;;;;;;;;;11.30;1.00;;;;;;10291991;28;83267;-52
2022/05/28 02:38:06;;;;;;;;;;;11.30;1.00;;;;;;10320974;28;83552;-48
2022/05/28 02:43:07;;;;;;;;;;;11.30;3.30;;;;;;10368532;22;84035;-48
2022/05/28 02:48:07;;;;;;;;;;;11.30;29.30;;;;;;10356705;28;86669;-46
2022/05/28 02:53:08;;;;;;;;;;;11.30;99.90;;;;;;10394190;28;84130;-47
2022/05/28 02:58:09;;;;;;;;;;;11.20;99.90;;;;;;10406790;28;83990;-46
2022/05/28 03:03:09;;;;;;;;;;;11.20;99.90;;;;;;10396359;28;83906;-46
2022/05/28 03:08:10;;;;;;;;;;;11.30;99.90;;;;;;10387446;28;83939;-45
2022/05/28 03:13:11;;;;;;;;;;;11.40;99.90;;;;;;10362726;28;85255;-49
2022/05/28 03:18:13;;;;;;;;;;;11.40;99.90;;;;;;10337753;28;86893;-43
2022/05/28 03:23:14;;;;;;;;;;;11.40;99.90;;;;;;10374709;28;83972;-45
2022/05/28 03:28:14;;;;;;;;;;;11.30;99.90;;;;;;10375010;28;84422;-44
2022/05/28 03:33:15;;;;;;;;;;;11.30;99.90;;;;;;10373091;28;84063;-45
2022/05/28 03:38:15;;;;;;;;;;;11.30;99.90;;;;;;10372023;28;83819;-48
2022/05/28 03:43:16;;;;;;;;;;;11.20;99.90;;;;;;10371971;28;85523;-46
2022/05/28 03:48:17;;;;;;;;;;;11.10;99.90;;;;;;10372278;28;83600;-45
2022/05/28 03:53:17;;;;;;;;;;;11.10;99.90;;;;;;10370803;28;84194;-44
2022/05/28 03:58:18;;;;;;;;;;;11.00;99.90;;;;;;10371356;28;83882;-44
2022/05/28 04:03:18;;;;;;;;;;;11.00;99.90;;;;;;10352909;28;83711;-44
2022/05/28 04:08:19;;;;;;;;;;;11.00;99.90;;;;;;10369325;28;83768;-46
2022/05/28 04:13:20;;;;;;;;;;;10.90;99.90;;;;;;10370905;28;84196;-43
2022/05/28 04:18:20;;;;;;;;;;;10.90;99.90;;;;;;10371716;28;84304;-46
2022/05/28 04:23:21;;;;;;;;;;;11.00;99.90;;;;;;10352171;28;86019;-46
2022/05/28 04:28:22;;;;;;;;;;;11.00;99.90;;;;;;10369961;28;84541;-45
2022/05/28 04:33:22;;;;;;;;;;;11.10;99.90;;;;;;10370215;28;83967;-44
2022/05/28 04:38:23;;;;;;;;;;;11.20;99.90;;;;;;10370670;28;83797;-49
2022/05/28 04:43:24;;;;;;;;;;;11.00;99.90;;;;;;10369026;28;84200;-45
2022/05/28 04:48:25;;;;;;;;;;;11.00;99.90;;;;;;10370000;28;83668;-43
2022/05/28 04:53:25;;;;;;;;;;;11.00;95.60;;;;;;10350432;28;83987;-44
2022/05/28 04:58:27;;;;;;;;;;;11.00;79.50;;;;;;10369331;28;83727;-44
2022/05/28 05:03:28;;;;;;;;;;;11.10;57.90;;;;;;10367914;28;83957;-44
2022/05/28 05:08:29;;;;;;;;;;;11.10;60.80;;;;;;10368346;28;84161;-50
2022/05/28 05:13:29;;;;;;;;;;;11.20;6.30;;;;;;10368559;28;84022;-45
2022/05/28 05:18:30;;;;;;;;;;;11.20;1.00;;;;;;10367658;28;84096;-43
2022/05/28 05:23:30;;;;;;;;;;;11.30;1.00;;;;;;10367522;28;83882;-45
2022/05/28 05:28:31;;;;;;;;;;;11.40;1.00;;;;;;10349608;28;83831;-45
2022/05/28 05:33:31;;;;;;;;;;;11.50;1.00;;;;;;10367314;28;83794;-44
2022/05/28 05:38:32;;;;;;;;;;;11.60;1.00;;;;;;10369206;28;84190;-49
2022/05/28 05:43:33;;;;;;;;;;;11.70;1.00;;;;;;10368204;28;83739;-47
2022/05/28 05:48:33;;;;;;;;;;;11.70;1.00;;;;;;10350705;28;84071;-46
2022/05/28 05:53:34;;;;;;;;;;;11.90;1.00;;;;;;10367482;28;84162;-45
2022/05/28 05:58:34;;;;;;;;;;;12.00;1.00;;;;;;10368182;28;84133;-45
2022/05/28 06:03:35;;;;;;;;;;;12.20;1.00;;;;;;10367624;28;84398;-47
2022/05/28 06:08:36;;;;;;;;;;;12.40;1.00;;;;;;10375182;28;83763;-45
2022/05/28 06:13:36;;;;;;;;;;;12.40;1.00;;;;;;10366957;28;84918;-47
2022/05/28 06:18:37;;;;;;;;;;;12.70;1.00;;;;;;10365601;28;84165;-45
2022/05/28 06:23:38;;;;;;;;;;;12.90;1.00;;;;;;10345962;28;84081;-44
2022/05/28 06:28:38;;;;;;;;;;;13.00;1.00;;;;;;10367180;28;84145;-45
2022/05/28 06:33:40;;;;;;;;;;;13.20;1.00;;;;;;10350910;28;84072;-49
2022/05/28 06:38:40;;;;;;;;;;;13.10;1.00;;;;;;10373517;28;84099;-45
2022/05/28 06:43:41;;;;;;;;;;;13.10;1.00;;;;;;10355512;28;84033;-44
2022/05/28 06:48:42;;;;;;;;;;;13.10;1.00;;;;;;10374305;28;83871;-44
2022/05/28 06:53:45;;;;;;;;;;;13.40;99.90;;;;;;10374396;28;83976;-45
2022/05/28 06:58:46;;;;;;;;;;;13.50;99.90;;;;;;10372655;28;83779;-47
2022/05/28 07:03:47;;;;;;;;;;;13.50;99.90;;;;;;10373393;28;84398;-44
2022/05/28 07:08:48;;;;;;;;;;;13.70;99.90;;;;;;10355237;28;83720;-47
2022/05/28 07:13:49;;;;;;;;;;;14.10;99.90;;;;;;10372422;28;84112;-44
2022/05/28 07:18:49;;;;;;;;;;;14.00;1.00;;;;;;10372355;28;84074;-48
2022/05/28 07:23:49;;;;;;;;;;;14.10;1.00;;;;;;10352693;28;86596;-47
2022/05/28 07:28:50;;;;;;;;;;;14.70;1.00;;;;;;10352418;28;84086;-45
2022/05/28 07:33:50;;;;;;;;;;;14.90;99.90;;;;;;10371237;28;84131;-46
2022/05/28 07:38:52;;;;;;;;;;;15.00;99.90;;;;;;10353412;28;83850;-46
2022/05/28 07:43:53;;;;;;;;;;;15.20;94.60;;;;;;10352750;28;85175;-50
2022/05/28 07:48:54;;;;;;;;;;;15.10;99.90;;;;;;10372063;28;83971;-46
2022/05/28 07:53:55;;;;;;;;;;;14.90;84.10;;;;;;10371236;28;84179;-48
2022/05/28 07:58:57;;;;;;;;;;;14.80;70.80;;;;;;10370990;28;84095;-46
2022/05/28 08:04:02;;;;;;;;;;;14.70;99.90;;;;;;10352889;28;83715;-44
2022/05/28 08:09:03;;;;;;;;;;;15.40;1.00;;;;;;10370803;28;84153;-45
2022/05/28 08:14:04;;;;;;;;;;;15.20;1.00;;;;;;10372341;28;83852;-50
2022/05/28 08:19:04;;;;;;;;;;;15.10;1.00;;;;;;10371156;28;84079;-48
2022/05/28 08:24:05;;;;;;;;;;;14.80;1.00;;;;;;10370181;28;84147;-48
2022/05/28 08:29:06;;;;;;;;;;;14.40;1.00;;;;;;10370645;28;83906;-46
2022/05/28 08:34:06;;;;;;;;;;;14.40;1.00;;;;;;10371104;28;83748;-45
2022/05/28 08:39:07;;;;;;;;;;;14.30;1.00;;;;;;10370543;28;84298;-45
2022/05/28 08:44:13;;;;;;;;;;;14.30;99.90;;;;;;10336699;22;84153;-44
2022/05/28 08:49:14;;;;;;;;;;;14.60;1.00;;;;;;10288365;28;84254;-45
2022/05/28 08:54:14;;;;;;;;;;;15.90;99.90;;;;;;10287204;28;83765;-45
2022/05/28 08:59:30;;;;;;;;;;;16.20;1.00;;;;;;10288860;28;83606;-46
2022/05/28 09:04:32;;;;;;;;;;;16.80;18.60;;;;;;10288938;28;85185;-45
2022/05/28 09:09:44;;;;;;;;;;;17.20;99.90;;;;;;10287179;28;84031;-45
2022/05/28 09:14:45;;;;;;;;;;;17.70;40.40;;;;;;10288308;28;83961;-45
2022/05/28 09:19:48;;;;;;;;;;;18.20;1.00;;;;;;10307645;28;104854;-45
2022/05/28 09:24:48;;;;;;;;;;;18.50;99.90;;;;;;10328627;28;84929;-45
2022/05/28 09:29:49;;;;;;;;;;;19.30;1.00;;;;;;10328885;28;87206;-45
2022/05/28 09:35:09;;;;;;;;;;;19.30;1.00;;;;;;10320717;28;84115;-47
2022/05/28 09:40:19;;;;;;;;;;;18.90;1.00;;;;;;10255556;28;85166;-44
2022/05/28 09:45:35;;;;;;;;;;;17.70;1.00;;;;;;10270144;28;84134;-46
2022/05/28 09:50:40;;;;;;;;;;;16.90;99.90;;;;;;10269323;28;84418;-46
2022/05/28 09:55:41;;;;;;;;;;;16.70;1.00;;;;;;10318258;28;84047;-49
2022/05/28 10:00:41;;;;;;;;;;;18.00;99.90;;;;;;10328379;28;84156;-47
2022/05/28 10:05:45;;;;;;;;;;;17.80;25.20;;;;;;10327816;28;84026;-46
2022/05/28 10:10:53;;;;;;;;;;;17.00;99.90;;;;;;10319735;28;83782;-46
2022/05/28 10:15:59;;;;;;;;;;;15.90;99.90;;;;;;10294378;28;83955;-50
2022/05/28 10:21:06;;;;;;;;;;;15.30;1.00;;;;;;10275795;28;86287;-47
2022/05/28 10:26:21;;;;;;;;;;;14.80;99.90;;;;;;10295319;28;84264;-48
2022/05/28 10:31:24;;;;;;;;;;;14.70;1.00;;;;;;10334050;28;83899;-45
2022/05/28 10:36:26;;;;;;;;;;;15.10;1.00;;;;;;10334418;28;84035;-45
2022/05/28 10:41:29;;;;;;;;;;;15.80;1.00;;;;;;10332966;28;83743;-47
2022/05/28 10:46:55;;;;;;;;;;;17.70;1.00;;;;;;10331915;28;83978;-46
2022/05/28 10:52:02;;;;;;;;;;;19.30;1.00;;;;;;10315444;28;86306;-47
2022/05/28 10:57:08;;;;;;;;;;;20.00;99.90;;;;;;10332940;28;83677;-47
2022/05/28 11:02:27;;;;;;;;;;;20.90;99.90;;;;;;10330742;28;84026;-46
2022/05/28 11:07:48;;;;;;;;;;;22.00;99.90;;;;;;10333288;28;84327;-46
2022/05/28 11:12:55;;;;;;;;;;;21.90;1.00;;;;;;10308519;28;83861;-48
2022/05/28 11:17:56;;;;;;;;;;;21.40;1.00;;;;;;10291433;28;84075;-45
2022/05/28 11:22:59;;;;;;;;;;;22.10;1.00;;;;;;10292264;28;84295;-45
2022/05/28 11:28:00;;;;;;;;;;;21.70;1.00;;;;;;10300927;28;83788;-45
2022/05/28 11:33:03;;;;;;;;;;;22.50;1.00;;;;;;10331258;28;83850;-45
2022/05/28 11:38:07;;;;;;;;;;;21.60;1.00;;;;;;10329610;28;83876;-46
2022/05/28 11:43:11;;;;;;;;;;;19.70;1.00;;;;;;10331114;28;84013;-48
2022/05/28 11:48:28;;;;;;;;;;;18.20;1.00;;;;;;10330635;28;84113;-44
2022/05/28 11:53:35;;;;;;;;;;;17.20;1.00;;;;;;10317534;28;84140;-45
2022/05/28 11:58:39;;;;;;;;;;;17.40;99.90;;;;;;10289618;28;84113;-47
2022/05/28 12:03:42;;;;;;;;;;;17.20;1.00;;;;;;10289520;28;83687;-49
2022/05/28 12:08:45;;;;;;;;;;;17.40;92.20;;;;;;10271736;28;84355;-47
2022/05/28 12:13:49;;;;;;;;;;;17.70;1.00;;;;;;10328987;28;84131;-47
2022/05/28 12:18:54;;;;;;;;;;;18.80;99.90;;;;;;10329726;28;84188;-47
2022/05/28 12:24:06;;;;;;;;;;;19.30;1.00;;;;;;10329330;28;83749;-49
2022/05/28 12:29:07;;;;;;;;;;;19.80;1.00;;;;;;10286865;28;83789;-45
2022/05/28 12:34:08;;;;;;;;;;;19.40;1.00;;;;;;10288259;28;83994;-46
2022/05/28 12:39:14;;;;;;;;;;;19.30;1.00;;;;;;10289035;28;83774;-46
2022/05/28 12:44:21;;;;;;;;;;;19.00;1.00;;;;;;10297295;28;83855;-47
2022/05/28 12:49:24;;;;;;;;;;;19.80;1.00;;;;;;10328751;28;84140;-46
2022/05/28 12:54:35;;;;;;;;;;;20.20;99.90;;;;;;10327852;28;84534;-49
2022/05/28 12:59:37;;;;;;;;;;;21.00;99.90;;;;;;10328164;28;84250;-46
2022/05/28 13:04:43;;;;;;;;;;;22.00;99.90;;;;;;10309474;28;83874;-46
2022/05/28 13:09:43;;;;;;;;;;;22.50;99.90;;;;;;10327653;28;84050;-46
2022/05/28 13:15:00;;;;;;;;;;;21.80;90.60;;;;;;10328585;28;83833;-46
2022/05/28 13:20:16;;;;;;;;;;;22.60;53.60;;;;;;10300711;28;84034;-45
2022/05/28 13:25:21;;;;;;;;;;;23.00;1.00;;;;;;10287685;28;83790;-45
2022/05/28 13:30:26;;;;;;;;;;;21.90;1.00;;;;;;10286595;28;83689;-48
2022/05/28 13:35:26;;;;;;;;;;;22.90;1.00;;;;;;10300332;28;83758;-46
2022/05/28 13:40:29;;;;;;;;;;;21.80;1.00;;;;;;10308298;28;85020;-49
2022/05/28 13:45:32;;;;;;;;;;;21.10;1.00;;;;;;10334844;28;84120;-45
2022/05/28 13:50:35;;;;;;;;;;;21.30;1.00;;;;;;10334758;28;84056;-46
2022/05/28 13:55:40;;;;;;;;;;;21.30;1.00;;;;;;10305835;28;84241;-46
2022/05/28 14:00:41;;;;;;;;;;;19.90;35.80;;;;;;10293145;28;84231;-47
2022/05/28 14:05:44;;;;;;;;;;;18.80;99.90;;;;;;10293512;28;83602;-47
2022/05/28 14:10:45;;;;;;;;;;;18.50;99.90;;;;;;10293561;28;83799;-46
2022/05/28 14:15:50;;;;;;;;;;;18.40;99.90;;;;;;10292899;28;84082;-45
2022/05/28 14:21:00;;;;;;;;;;;18.30;99.90;;;;;;10292613;28;83705;-45
2022/05/28 14:26:01;;;;;;;;;;;18.30;99.90;;;;;;10293253;28;83699;-44
2022/05/28 14:31:02;;;;;;;;;;;18.60;99.90;;;;;;10274721;28;86209;-45
2022/05/28 14:36:08;;;;;;;;;;;18.40;99.90;;;;;;10291260;28;83785;-45
2022/05/28 14:46:23;;;;;;;;;;;18.20;99.90;;;;;;10348470;28;84207;-52
2022/05/28 14:51:25;;;;;;;;;;;18.10;99.90;;;;;;10333102;28;83814;-49
2022/05/28 14:56:30;;;;;;;;;;;18.60;1.00;;;;;;10330004;28;86569;-50
2022/05/28 15:01:32;;;;;;;;;;;18.30;1.00;;;;;;10336114;28;83788;-56
2022/05/28 15:06:34;;;;;;;;;;;17.90;1.00;;;;;;10372833;28;85126;-50
2022/05/28 15:11:35;;;;;;;;;;;17.60;1.00;;;;;;10371619;28;83736;-49
2022/05/28 15:16:37;;;;;;;;;;;17.90;1.00;;;;;;10371884;28;85441;-54
2022/05/28 15:21:37;;;;;;;;;;;17.90;1.00;;;;;;10370584;28;84125;-52
2022/05/28 15:26:40;;;;;;;;;;;17.60;99.90;;;;;;10372796;28;85366;-51
2022/05/28 15:31:41;;;;;;;;;;;17.60;99.90;;;;;;10373980;28;83419;-52
2022/05/28 15:42:01;;;;;;;;;;;17.10;1.00;;;;;;10332310;28;83788;-51
2022/05/28 15:47:02;;;;;;;;;;;16.90;1.00;;;;;;10330974;28;84848;-53
2022/05/28 15:52:03;;;;;;;;;;;16.90;99.90;;;;;;10330827;28;83240;-49
2022/05/28 15:57:03;;;;;;;;;;;16.90;1.00;;;;;;10369442;28;84390;-50
2022/05/28 16:02:07;;;;;;;;;;;17.30;1.00;;;;;;10370678;28;85429;-52
2022/05/28 16:07:07;;;;;;;;;;;17.20;99.90;;;;;;10372273;28;83294;-51
2022/05/28 16:12:08;;;;;;;;;;;17.30;99.90;;;;;;10367010;28;84302;-52
2022/05/28 16:17:09;;;;;;;;;;;17.00;99.90;;;;;;10370196;28;83274;-51
2022/05/28 16:22:09;;;;;;;;;;;16.90;1.00;;;;;;10370757;28;83270;-51
2022/05/28 16:27:10;;;;;;;;;;;16.70;1.00;;;;;;10369051;28;84245;-50
2022/05/28 16:32:11;;;;;;;;;;;16.80;1.00;;;;;;10368913;28;84353;-48
2022/05/28 16:37:11;;;;;;;;;;;16.40;1.00;;;;;;10371079;28;84870;-52
2022/05/28 16:42:18;;;;;;;;;;;16.20;1.00;;;;;;10370412;28;84473;-53
2022/05/28 16:47:18;;;;;;;;;;;16.00;1.00;;;;;;10367967;28;83451;-53
2022/05/28 16:52:19;;;;;;;;;;;15.80;99.90;;;;;;10370095;28;84074;-54
2022/05/28 16:57:21;;;;;;;;;;;15.60;1.00;;;;;;10371763;28;84269;-53
2022/05/28 17:02:22;;;;;;;;;;;15.70;99.90;;;;;;10350759;28;85159;-55
2022/05/28 17:07:23;;;;;;;;;;;15.80;98.30;;;;;;10328850;28;84038;-49
2022/05/28 17:12:25;;;;;;;;;;;15.90;1.00;;;;;;10327493;28;83805;-49
2022/05/28 17:17:26;;;;;;;;;;;16.20;1.00;;;;;;10327402;28;84004;-54
2022/05/28 17:22:27;;;;;;;;;;;16.30;99.90;;;;;;10328295;28;84285;-53
2022/05/28 17:27:27;;;;;;;;;;;16.00;99.90;;;;;;10309925;28;85962;-50
2022/05/28 17:32:28;;;;;;;;;;;15.70;99.90;;;;;;10327765;28;83850;-51
2022/05/28 17:37:31;;;;;;;;;;;15.50;99.90;;;;;;10354659;28;83405;-51
2022/05/28 17:42:31;;;;;;;;;;;15.60;1.00;;;;;;10361557;28;83642;-52
2022/05/28 17:47:32;;;;;;;;;;;15.60;1.00;;;;;;10368422;28;83197;-51
2022/05/28 17:52:34;;;;;;;;;;;15.40;1.00;;;;;;10368224;28;84348;-49
2022/05/28 17:57:35;;;;;;;;;;;15.40;1.00;;;;;;10329087;28;86099;-52
2022/05/28 18:02:36;;;;;;;;;;;15.30;1.00;;;;;;10325477;28;83383;-50
2022/05/28 18:07:36;;;;;;;;;;;15.20;1.00;;;;;;10327264;28;83673;-52
2022/05/28 18:12:37;;;;;;;;;;;15.30;1.00;;;;;;10347019;28;85761;-51
2022/05/28 18:17:39;;;;;;;;;;;15.40;1.00;;;;;;10369687;28;83404;-51
2022/05/28 18:22:41;;;;;;;;;;;15.50;1.00;;;;;;10369089;28;83232;-52
2022/05/28 18:27:41;;;;;;;;;;;15.60;1.00;;;;;;10367654;28;84052;-55
2022/05/28 18:32:42;;;;;;;;;;;15.40;99.90;;;;;;10334285;28;84005;-53
2022/05/28 18:37:44;;;;;;;;;;;15.30;99.90;;;;;;10339453;28;84017;-49
2022/05/28 18:42:45;;;;;;;;;;;15.10;99.90;;;;;;10359838;28;83895;-50
2022/05/28 18:47:46;;;;;;;;;;;14.90;1.00;;;;;;10355229;28;84081;-53
2022/05/28 18:52:47;;;;;;;;;;;14.80;1.00;;;;;;10356072;28;86192;-51
2022/05/28 18:57:47;;;;;;;;;;;14.60;1.00;;;;;;10362930;28;84169;-53
2022/05/28 19:02:49;;;;;;;;;;;14.60;99.90;;;;;;10369823;28;84432;-52
2022/05/28 19:07:50;;;;;;;;;;;14.30;1.00;;;;;;10374380;28;84036;-49
2022/05/28 19:12:51;;;;;;;;;;;14.30;57.10;;;;;;10372005;28;84803;-50
2022/05/28 19:17:54;;;;;;;;;;;14.30;1.00;;;;;;10370938;28;83762;-51
2022/05/28 19:22:54;;;;;;;;;;;14.20;99.90;;;;;;10373634;28;83470;-54
2022/05/28 19:27:55;;;;;;;;;;;13.90;32.80;;;;;;10374590;28;83539;-51
2022/05/28 19:32:57;;;;;;;;;;;13.80;1.00;;;;;;10372818;28;83453;-54
2022/05/28 19:37:58;;;;;;;;;;;13.70;1.00;;;;;;10370363;28;83970;-52
2022/05/28 19:43:01;;;;;;;;;;;13.50;1.00;;;;;;10370240;28;85477;-49
2022/05/28 19:48:04;;;;;;;;;;;13.30;1.00;;;;;;10371781;28;84172;-53
2022/05/28 19:53:05;;;;;;;;;;;13.10;1.00;;;;;;10372044;28;84336;-54
2022/05/28 19:58:06;;;;;;;;;;;13.00;99.90;;;;;;10373944;28;84412;-50
2022/05/28 20:03:07;;;;;;;;;;;12.90;1.00;;;;;;10370604;28;85299;-53
2022/05/28 20:08:08;;;;;;;;;;;12.80;16.30;;;;;;10372968;28;84218;-53
2022/05/28 20:13:08;;;;;;;;;;;12.80;99.90;;;;;;10370551;28;84030;-50
2022/05/28 20:18:09;;;;;;;;;;;12.80;99.90;;;;;;10372543;28;85434;-50
2022/05/28 20:23:14;;;;;;;;;;;12.80;1.00;;;;;;10370580;28;84043;-54
2022/05/28 20:28:15;;;;;;;;;;;12.70;1.00;;;;;;10366146;28;86860;-52
2022/05/28 20:33:18;;;;;;;;;;;12.60;1.00;;;;;;10368943;28;84158;-48
2022/05/28 20:38:19;;;;;;;;;;;12.50;1.00;;;;;;10369410;28;83935;-49
2022/05/28 20:43:20;;;;;;;;;;;12.20;99.90;;;;;;10376524;22;84299;-43
2022/05/28 20:48:24;;;;;;;;;;;12.20;99.90;;;;;;10308471;28;84089;-44
2022/05/28 20:53:29;;;;;;;;;;;12.10;99.90;;;;;;10304729;28;83647;-47
2022/05/28 20:58:30;;;;;;;;;;;12.00;99.90;;;;;;10268949;28;84125;-47
2022/05/28 21:03:32;;;;;;;;;;;11.90;99.90;;;;;;10286352;28;83920;-43
2022/05/28 21:08:33;;;;;;;;;;;11.80;99.90;;;;;;10286121;28;84127;-47
2022/05/28 21:13:34;;;;;;;;;;;11.70;99.90;;;;;;10287202;28;83682;-43
2022/05/28 21:18:37;;;;;;;;;;;11.60;1.00;;;;;;10291075;28;83699;-53
2022/05/28 21:23:38;;;;;;;;;;;11.50;1.00;;;;;;10327572;28;83244;-45
2022/05/28 21:33:58;;;;;;;;;;;11.30;1.00;;;;;;10330222;28;83629;-46
2022/05/28 21:38:58;;;;;;;;;;;11.30;1.00;;;;;;10326413;28;84247;-44
2022/05/28 21:43:59;;;;;;;;;;;11.30;1.00;;;;;;10329272;28;83806;-45
2022/05/28 21:49:00;;;;;;;;;;;11.30;1.00;;;;;;10331077;28;83736;-43
2022/05/28 21:54:03;;;;;;;;;;;11.20;1.00;;;;;;10315948;28;83667;-50
2022/05/28 21:59:04;;;;;;;;;;;11.20;1.00;;;;;;10268519;28;84342;-45
2022/05/28 22:04:05;;;;;;;;;;;11.10;1.00;;;;;;10290380;28;83716;-47
2022/05/28 22:09:05;;;;;;;;;;;11.00;1.00;;;;;;10293559;28;83903;-48
2022/05/28 22:14:06;;;;;;;;;;;11.00;1.00;;;;;;10332149;28;84288;-44
2022/05/28 22:19:09;;;;;;;;;;;11.00;1.00;;;;;;10332716;28;83820;-43
2022/05/28 22:24:10;;;;;;;;;;;10.90;1.00;;;;;;10332694;28;83907;-47
2022/05/28 22:29:10;;;;;;;;;;;10.80;1.00;;;;;;10309946;28;84859;-44
2022/05/28 22:34:17;;;;;;;;;;;10.70;1.00;;;;;;10291936;28;83992;-44
2022/05/28 22:39:18;;;;;;;;;;;10.70;1.00;;;;;;10292045;28;84003;-44
2022/05/28 22:49:39;;;;;;;;;;;10.70;1.00;;;;;;10332450;28;83669;-47
2022/05/28 22:54:40;;;;;;;;;;;10.60;1.00;;;;;;10332723;28;83903;-48
2022/05/28 22:59:40;;;;;;;;;;;10.50;1.00;;;;;;10332593;28;83928;-46
2022/05/28 23:04:44;;;;;;;;;;;10.40;1.00;;;;;;10331117;28;83732;-44
2022/05/28 23:09:44;;;;;;;;;;;10.40;1.00;;;;;;10331487;28;83860;-47
2022/05/28 23:14:45;;;;;;;;;;;10.30;1.00;;;;;;10314350;28;83991;-45
2022/05/28 23:19:45;;;;;;;;;;;10.30;1.00;;;;;;10330191;28;84135;-47
2022/05/28 23:30:05;;;;;;;;;;;10.10;1.00;;;;;;10330796;28;84039;-50
2022/05/28 23:35:06;;;;;;;;;;;10.10;1.00;;;;;;10323220;28;84019;-45
2022/05/28 23:40:07;;;;;;;;;;;10.00;1.00;;;;;;10272684;28;84160;-45
2022/05/28 23:45:07;;;;;;;;;;;10.10;1.00;;;;;;10273304;28;86238;-45
2022/05/28 23:50:10;;;;;;;;;;;10.10;1.00;;;;;;10291630;28;83846;-44
2022/05/28 23:55:14;;;;;;;;;;;10.10;1.00;;;;;;10272960;28;86063;-45
